createdAt,value
2022-09-12T00:01:43.710Z,77.27
2022-09-12T00:03:48.123Z,76.65
2022-09-12T00:05:51.673Z,76.93
2022-09-12T00:07:55.284Z,76.93
2022-09-12T00:09:58.751Z,76.23
2022-09-12T00:12:02.259Z,76.17
2022-09-12T00:14:07.069Z,76.08
2022-09-12T00:16:18.210Z,76.29
2022-09-12T00:18:21.579Z,76.90
2022-09-12T00:20:26.681Z,76.01
2022-09-12T00:22:30.078Z,76.51
2022-09-12T00:24:33.984Z,76.43
2022-09-12T00:26:37.649Z,76.19
2022-09-12T00:28:42.772Z,76.96
2022-09-12T00:30:48.897Z,76.37
2022-09-12T00:32:54.715Z,76.74
2022-09-12T00:34:58.160Z,76.19
2022-09-12T00:37:02.027Z,75.93
2022-09-12T00:39:06.436Z,76.54
2022-09-12T00:41:16.259Z,76.48
2022-09-12T00:43:37.040Z,76.01
2022-09-12T00:45:42.425Z,76.18
2022-09-12T00:47:45.849Z,76.00
2022-09-12T00:49:55.931Z,76.03
2022-09-12T00:52:04.308Z,76.44
2022-09-12T00:54:13.667Z,76.46
2022-09-12T00:56:19.316Z,75.65
2022-09-12T00:58:26.235Z,76.06
2022-09-12T01:00:30.525Z,76.18
2022-09-12T01:02:35.374Z,75.65
2022-09-12T01:04:42.589Z,75.71
2022-09-12T01:06:48.592Z,76.05
2022-09-12T01:08:53.748Z,75.93
2022-09-12T01:10:58.547Z,75.81
2022-09-12T01:13:02.464Z,75.58
2022-09-12T01:15:07.132Z,76.04
2022-09-12T01:17:13.949Z,77.31
2022-09-12T01:19:45.390Z,78.51
2022-09-12T01:22:06.500Z,78.52
2022-09-12T01:24:40.107Z,77.35
2022-09-12T01:27:14.032Z,77.79
2022-09-12T01:29:31.502Z,78.35
2022-09-12T01:31:42.214Z,77.53
2022-09-12T01:34:01.266Z,77.98
2022-09-12T01:36:25.785Z,78.33
2022-09-12T01:38:37.779Z,77.59
2022-09-12T01:40:46.721Z,78.00
2022-09-12T01:42:58.903Z,78.07
2022-09-12T01:45:09.071Z,78.27
2022-09-12T01:47:50.000Z,78.34
2022-09-12T01:50:01.348Z,79.16
2022-09-12T01:52:13.462Z,78.83
2022-09-12T01:54:23.096Z,78.87
2022-09-12T01:56:28.651Z,79.30
2022-09-12T01:58:41.346Z,78.42
2022-09-12T02:00:52.030Z,78.81
2022-09-12T02:03:02.280Z,77.86
2022-09-12T02:05:10.507Z,78.13
2022-09-12T02:07:19.257Z,77.90
2022-09-12T02:09:26.834Z,78.12
2022-09-12T02:11:35.231Z,77.63
2022-09-12T02:13:43.266Z,78.50
2022-09-12T02:15:53.514Z,78.17
2022-09-12T02:18:02.540Z,77.70
2022-09-12T02:20:17.757Z,77.85
2022-09-12T02:22:38.320Z,77.18
2022-09-12T02:24:47.013Z,77.71
2022-09-12T02:26:55.752Z,77.82
2022-09-12T02:28:59.283Z,77.36
2022-09-12T02:31:14.672Z,78.40
2022-09-12T02:33:26.697Z,77.76
2022-09-12T02:35:40.208Z,78.21
2022-09-12T02:37:55.997Z,77.83
2022-09-12T02:40:00.818Z,77.67
2022-09-12T02:42:05.666Z,77.15
2022-09-12T02:44:09.006Z,77.07
2022-09-12T02:46:18.962Z,77.03
2022-09-12T02:48:28.602Z,77.42
2022-09-12T02:50:33.159Z,76.83
2022-09-12T02:52:36.886Z,77.36
2022-09-12T02:54:40.780Z,77.43
2022-09-12T02:56:46.075Z,77.88
2022-09-12T02:58:49.980Z,77.73
2022-09-12T03:01:01.867Z,77.32
2022-09-12T03:03:30.949Z,77.56
2022-09-12T03:05:38.891Z,78.31
2022-09-12T03:08:05.890Z,78.16
2022-09-12T03:10:21.108Z,77.83
2022-09-12T03:12:41.801Z,78.23
2022-09-12T03:15:02.001Z,77.46
2022-09-12T03:17:16.224Z,77.48
2022-09-12T03:19:28.130Z,78.28
2022-09-12T03:21:38.187Z,77.83
2022-09-12T03:23:47.013Z,78.76
2022-09-12T03:25:55.574Z,78.24
2022-09-12T03:28:06.114Z,77.25
2022-09-12T03:30:10.930Z,77.86
2022-09-12T03:32:15.748Z,78.18
2022-09-12T03:34:19.599Z,77.61
2022-09-12T03:36:27.220Z,77.85
2022-09-12T03:38:30.590Z,77.87
2022-09-12T03:40:33.965Z,78.04
2022-09-12T03:42:37.263Z,77.80
2022-09-12T03:44:40.559Z,77.76
2022-09-12T03:46:44.684Z,77.82
2022-09-12T03:48:48.139Z,77.67
2022-09-12T03:50:51.486Z,77.27
2022-09-12T03:52:59.541Z,76.89
2022-09-12T03:55:03.404Z,78.08
2022-09-12T03:57:07.029Z,77.44
2022-09-12T03:59:10.395Z,77.28
2022-09-12T04:01:16.246Z,77.67
2022-09-12T04:03:19.891Z,77.19
2022-09-12T04:05:24.002Z,77.87
2022-09-12T04:07:27.628Z,78.00
2022-09-12T04:09:32.345Z,77.64
2022-09-12T04:11:36.750Z,76.92
2022-09-12T04:13:41.488Z,77.48
2022-09-12T04:15:59.976Z,77.71
2022-09-12T04:18:08.989Z,78.08
2022-09-12T04:20:18.146Z,77.64
2022-09-12T04:22:21.456Z,77.51
2022-09-12T04:24:25.844Z,77.75
2022-09-12T04:26:31.754Z,78.00
2022-09-12T04:28:37.189Z,78.94
2022-09-12T04:30:40.602Z,78.16
2022-09-12T04:32:46.034Z,78.42
2022-09-12T04:34:49.459Z,79.16
2022-09-12T04:36:53.055Z,78.96
2022-09-12T04:38:56.951Z,78.47
2022-09-12T04:41:00.292Z,78.56
2022-09-12T04:43:06.117Z,78.26
2022-09-12T04:45:10.169Z,78.29
2022-09-12T04:47:13.539Z,78.23
2022-09-12T04:49:19.250Z,77.99
2022-09-12T04:51:25.960Z,78.11
2022-09-12T04:53:33.626Z,78.08
2022-09-12T04:55:37.148Z,78.38
2022-09-12T04:57:41.315Z,78.63
2022-09-12T04:59:46.034Z,78.34
2022-09-12T05:01:49.584Z,77.98
2022-09-12T05:03:53.434Z,78.19
2022-09-12T05:05:56.867Z,78.74
2022-09-12T05:08:01.143Z,78.50
2022-09-12T05:10:05.254Z,78.44
2022-09-12T05:12:09.419Z,78.09
2022-09-12T05:14:13.734Z,78.16
2022-09-12T05:16:20.014Z,78.78
2022-09-12T05:18:23.571Z,78.68
2022-09-12T05:20:26.995Z,78.98
2022-09-12T05:22:30.287Z,79.44
2022-09-12T05:24:33.916Z,79.24
2022-09-12T05:26:37.218Z,78.90
2022-09-12T05:28:41.419Z,79.40
2022-09-12T05:30:44.882Z,79.15
2022-09-12T05:32:49.681Z,79.33
2022-09-12T05:34:54.255Z,79.49
2022-09-12T05:36:59.410Z,79.59
2022-09-12T05:39:03.738Z,79.60
2022-09-12T05:41:12.396Z,79.72
2022-09-12T05:43:20.316Z,79.58
2022-09-12T05:45:23.853Z,79.75
2022-09-12T05:47:27.866Z,79.77
2022-09-12T05:49:32.608Z,79.74
2022-09-12T05:51:38.440Z,79.94
2022-09-12T05:53:42.708Z,80.34
2022-09-12T05:55:46.053Z,81.17
2022-09-12T05:57:49.627Z,81.05
2022-09-12T05:59:52.994Z,80.36
2022-09-12T06:01:56.531Z,81.37
2022-09-12T06:04:01.745Z,80.93
2022-09-12T06:06:07.907Z,81.35
2022-09-12T06:08:11.250Z,81.33
2022-09-12T06:10:15.998Z,81.49
2022-09-12T06:12:20.013Z,81.97
2022-09-12T06:14:23.395Z,81.91
2022-09-12T06:16:29.545Z,82.25
2022-09-12T06:18:33.237Z,82.67
2022-09-12T06:20:37.200Z,81.97
2022-09-12T06:22:42.397Z,81.76
2022-09-12T06:24:46.839Z,81.84
2022-09-12T06:26:52.583Z,81.37
2022-09-12T06:28:57.806Z,83.35
2022-09-12T06:31:05.788Z,81.20
2022-09-12T06:33:09.163Z,79.76
2022-09-12T06:35:13.723Z,80.99
2022-09-12T06:37:17.287Z,79.56
2022-09-12T06:39:23.836Z,79.98
2022-09-12T06:41:27.628Z,81.16
2022-09-12T06:43:32.419Z,80.78
2022-09-12T06:45:36.163Z,80.69
2022-09-12T06:47:40.524Z,80.91
2022-09-12T06:49:44.082Z,80.58
2022-09-12T06:51:47.650Z,79.65
2022-09-12T06:53:52.338Z,80.04
2022-09-12T06:56:01.172Z,80.10
2022-09-12T06:58:05.488Z,80.20
2022-09-12T07:00:10.371Z,79.65
2022-09-12T07:02:13.788Z,80.34
2022-09-12T07:04:17.150Z,79.90
2022-09-12T07:06:24.071Z,80.14
2022-09-12T07:08:28.677Z,79.63
2022-09-12T07:10:32.108Z,79.24
2022-09-12T07:12:37.071Z,79.78
2022-09-12T07:14:40.361Z,79.45
2022-09-12T07:16:45.160Z,79.50
2022-09-12T07:18:52.066Z,80.50
2022-09-12T07:20:55.586Z,78.74
2022-09-12T07:22:59.613Z,78.96
2022-09-12T07:25:03.114Z,79.42
2022-09-12T07:27:07.013Z,78.82
2022-09-12T07:29:35.794Z,80.08
2022-09-12T07:31:40.708Z,78.97
2022-09-12T07:33:45.115Z,78.89
2022-09-12T07:35:49.579Z,78.59
2022-09-12T07:37:52.998Z,78.53
2022-09-12T07:39:57.519Z,78.45
2022-09-12T07:42:01.430Z,79.33
2022-09-12T07:44:06.635Z,78.54
2022-09-12T07:46:12.241Z,78.08
2022-09-12T07:48:17.387Z,78.36
2022-09-12T07:50:20.728Z,78.08
2022-09-12T07:52:24.396Z,78.08
2022-09-12T07:54:27.868Z,77.93
2022-09-12T07:56:34.626Z,78.24
2022-09-12T07:58:42.196Z,77.95
2022-09-12T08:00:45.938Z,78.48
2022-09-12T08:02:54.030Z,78.71
2022-09-12T08:04:57.424Z,78.15
2022-09-12T08:07:00.857Z,78.50
2022-09-12T08:09:05.237Z,78.45
2022-09-12T08:11:10.936Z,78.03
2022-09-12T08:13:14.567Z,77.48
2022-09-12T08:15:18.121Z,77.72
2022-09-12T08:17:21.965Z,77.52
2022-09-12T08:19:26.692Z,77.00
2022-09-12T08:21:31.895Z,77.33
2022-09-12T08:23:35.811Z,76.88
2022-09-12T08:25:39.185Z,77.00
2022-09-12T08:27:43.995Z,77.33
2022-09-12T08:29:47.329Z,76.99
2022-09-12T08:31:55.151Z,76.41
2022-09-12T08:34:24.763Z,76.94
2022-09-12T08:36:30.238Z,76.69
2022-09-12T08:38:33.651Z,76.93
2022-09-12T08:40:48.898Z,76.17
2022-09-12T08:43:00.209Z,75.77
2022-09-12T08:45:15.920Z,75.47
2022-09-12T08:47:24.753Z,75.63
2022-09-12T08:49:34.505Z,75.42
2022-09-12T08:51:40.964Z,74.92
2022-09-12T08:53:48.104Z,73.99
2022-09-12T08:55:54.660Z,73.82
2022-09-12T08:58:00.090Z,73.58
2022-09-12T09:00:07.938Z,73.21
2022-09-12T09:02:34.438Z,73.42
2022-09-12T09:04:50.745Z,73.08
2022-09-12T09:07:15.449Z,72.18
2022-09-12T09:09:31.557Z,71.96
2022-09-12T09:11:48.162Z,72.23
2022-09-12T09:14:21.997Z,71.43
2022-09-12T09:16:32.919Z,71.97
2022-09-12T09:18:38.151Z,71.49
2022-09-12T09:20:46.729Z,71.64
2022-09-12T09:22:56.814Z,71.17
2022-09-12T09:25:06.192Z,71.39
2022-09-12T09:27:39.171Z,70.23
2022-09-12T09:29:45.594Z,69.57
2022-09-12T09:31:53.118Z,68.25
2022-09-12T09:33:56.693Z,68.46
2022-09-12T09:36:12.395Z,68.75
2022-09-12T09:38:25.440Z,68.00
2022-09-12T09:40:39.684Z,67.50
2022-09-12T09:42:48.794Z,66.75
2022-09-12T09:44:55.598Z,67.53
2022-09-12T09:47:01.222Z,67.09
2022-09-12T09:49:07.040Z,66.39
2022-09-12T09:51:10.708Z,66.32
2022-09-12T09:53:35.023Z,64.28
2022-09-12T09:55:43.407Z,64.58
2022-09-12T09:57:51.241Z,63.69
2022-09-12T09:59:54.982Z,63.48
2022-09-12T10:02:03.477Z,63.39
2022-09-12T10:04:07.248Z,62.61
2022-09-12T10:06:26.070Z,61.49
2022-09-12T10:08:33.109Z,60.78
2022-09-12T10:10:36.541Z,60.62
2022-09-12T10:12:40.042Z,61.38
2022-09-12T10:16:53.396Z,60.09
2022-09-12T10:18:59.121Z,60.64
2022-09-12T10:21:03.615Z,60.62
2022-09-12T10:23:30.222Z,59.54
2022-09-12T10:25:35.963Z,59.68
2022-09-12T10:27:39.852Z,58.07
2022-09-12T10:29:47.805Z,57.16
2022-09-12T10:31:54.070Z,57.05
2022-09-12T10:34:01.044Z,56.58
2022-09-12T10:36:05.145Z,56.65
2022-09-12T10:38:17.996Z,57.06
2022-09-12T10:40:26.423Z,56.43
2022-09-12T10:42:52.669Z,55.22
2022-09-12T10:44:56.268Z,54.25
2022-09-12T10:47:30.410Z,54.50
2022-09-12T10:50:22.093Z,53.85
2022-09-12T10:57:21.119Z,51.63
2022-09-12T10:59:40.197Z,50.02
2022-09-12T11:01:47.208Z,50.56
2022-09-12T11:04:08.300Z,50.15
2022-09-12T11:06:17.599Z,50.24
2022-09-12T11:08:52.121Z,49.46
2022-09-12T11:11:01.107Z,47.90
2022-09-12T11:13:22.332Z,48.38
2022-09-12T11:15:52.157Z,48.07
2022-09-12T11:18:01.751Z,49.12
2022-09-12T11:20:22.671Z,49.39
2022-09-12T11:22:41.543Z,47.91
2022-09-12T11:25:19.282Z,48.32
2022-09-12T11:27:42.163Z,47.89
2022-09-12T11:29:50.187Z,47.22
2022-09-12T11:32:12.945Z,47.10
2022-09-12T11:34:25.279Z,47.04
2022-09-12T11:36:34.855Z,46.99
2022-09-12T11:38:58.811Z,45.60
2022-09-12T11:41:06.464Z,45.26
2022-09-12T11:43:54.958Z,45.21
2022-09-12T12:01:31.369Z,41.28
2022-09-12T12:04:00.145Z,42.74
2022-09-12T12:06:15.628Z,43.71
2022-09-12T12:08:19.596Z,44.25
2022-09-12T12:10:27.405Z,42.58
2022-09-12T12:12:31.305Z,42.64
2022-09-12T12:14:42.474Z,41.82
2022-09-12T12:16:47.068Z,42.84
2022-09-12T12:18:56.308Z,43.52
2022-09-12T12:21:31.344Z,42.98
2022-09-12T12:23:36.534Z,42.60
2022-09-12T12:25:42.959Z,43.21
2022-09-12T12:27:51.845Z,41.33
2022-09-12T12:29:55.756Z,40.91
2022-09-12T12:32:25.039Z,40.38
2022-09-12T12:34:30.925Z,39.48
2022-09-12T12:36:41.428Z,38.63
2022-09-12T12:38:46.076Z,38.55
2022-09-12T12:40:50.431Z,38.30
2022-09-12T12:43:06.153Z,37.22
2022-09-12T12:45:42.690Z,37.96
2022-09-12T12:47:48.821Z,37.72
2022-09-12T12:49:54.472Z,37.26
2022-09-12T12:52:02.399Z,37.38
2022-09-12T12:54:35.308Z,37.06
2022-09-12T12:56:43.421Z,37.15
2022-09-12T12:58:49.739Z,37.04
2022-09-12T13:01:07.031Z,37.57
2022-09-12T13:05:18.231Z,36.79
2022-09-12T13:25:53.973Z,34.69
2022-09-12T13:28:06.187Z,33.81
2022-09-12T13:34:00.931Z,33.71
2022-09-12T14:34:20.463Z,35.82
2022-09-12T14:36:27.310Z,35.73
2022-09-12T14:38:36.537Z,35.06
2022-09-12T14:40:43.516Z,35.12
2022-09-12T14:42:50.004Z,35.47
2022-09-12T14:44:58.035Z,35.64
2022-09-12T14:47:13.766Z,35.95
2022-09-12T14:49:21.597Z,35.98
2022-09-12T14:51:28.664Z,35.58
2022-09-12T14:53:33.819Z,35.24
2022-09-12T14:55:45.470Z,35.53
2022-09-12T14:57:50.482Z,35.42
2022-09-12T14:59:54.673Z,35.66
2022-09-12T15:02:23.756Z,35.79
2022-09-12T15:04:40.472Z,35.47
2022-09-12T15:06:43.999Z,35.61
2022-09-12T15:08:47.617Z,35.58
2022-09-12T15:10:50.963Z,35.74
2022-09-12T15:13:14.014Z,36.04
2022-09-12T15:15:19.676Z,35.88
2022-09-12T15:17:22.932Z,36.40
2022-09-12T15:19:27.957Z,35.26
2022-09-12T15:21:32.836Z,35.05
2022-09-12T15:23:40.178Z,34.80
2022-09-12T15:25:50.420Z,34.86
2022-09-12T15:27:56.005Z,35.93
2022-09-12T15:30:03.689Z,36.10
2022-09-12T15:40:34.366Z,37.27
2022-09-12T15:42:38.730Z,36.91
2022-09-12T15:44:42.482Z,37.35
2022-09-12T15:46:46.116Z,37.95
2022-09-12T15:49:42.783Z,37.87
2022-09-12T15:51:55.277Z,37.80
2022-09-12T15:53:58.823Z,37.76
2022-09-12T16:03:39.136Z,38.20
2022-09-12T16:05:42.854Z,38.06
2022-09-12T16:07:46.414Z,38.26
2022-09-12T16:09:50.045Z,38.96
2022-09-12T16:11:54.796Z,38.17
2022-09-12T16:13:58.328Z,38.79
2022-09-12T16:16:01.982Z,39.71
2022-09-12T16:18:05.487Z,39.08
2022-09-12T16:20:10.114Z,39.11
2022-09-12T16:22:13.476Z,38.94
2022-09-12T16:24:16.938Z,40.06
2022-09-12T17:20:29.052Z,42.93
2022-09-12T17:22:56.964Z,43.92
2022-09-12T17:36:27.375Z,44.75
2022-09-12T17:38:34.654Z,44.85
2022-09-12T17:40:58.631Z,44.63
2022-09-12T17:43:01.916Z,45.16
2022-09-12T17:45:06.375Z,45.39
2022-09-12T17:47:09.662Z,45.50
2022-09-12T17:49:15.103Z,45.42
2022-09-12T17:51:18.585Z,45.75
2022-09-12T17:53:21.995Z,45.57
2022-09-12T17:55:27.474Z,46.06
2022-09-12T17:57:30.727Z,45.74
2022-09-12T17:59:34.108Z,46.13
2022-09-12T18:01:55.271Z,46.31
2022-09-12T18:04:00.538Z,46.56
2022-09-12T18:06:03.919Z,46.22
2022-09-12T18:08:07.257Z,46.62
2022-09-12T18:10:11.937Z,46.82
2022-09-12T18:12:20.017Z,47.17
2022-09-12T18:14:24.007Z,47.24
2022-09-12T18:16:28.185Z,47.42
2022-09-12T18:18:31.882Z,47.66
2022-09-12T18:20:35.285Z,47.45
2022-09-12T18:22:38.624Z,47.56
2022-09-12T18:24:42.028Z,48.58
2022-09-12T18:26:45.377Z,48.00
2022-09-12T18:28:50.063Z,48.03
2022-09-12T18:30:53.814Z,48.38
2022-09-12T18:32:57.121Z,48.40
2022-09-12T18:35:00.953Z,48.48
2022-09-12T18:37:05.269Z,48.72
2022-09-12T18:39:08.702Z,48.94
2022-09-12T18:41:14.604Z,48.87
2022-09-12T18:43:17.991Z,48.98
2022-09-12T18:45:22.649Z,49.27
2022-09-12T18:47:26.425Z,49.49
2022-09-12T18:49:29.956Z,49.74
2022-09-12T18:51:36.212Z,49.60
2022-09-12T18:53:39.956Z,50.05
2022-09-12T18:55:43.275Z,49.91
2022-09-12T18:57:46.799Z,50.03
2022-09-12T18:59:50.162Z,50.47
2022-09-12T19:01:54.894Z,50.65
2022-09-12T19:03:58.984Z,50.83
2022-09-12T19:06:02.300Z,50.52
2022-09-12T19:08:05.570Z,50.59
2022-09-12T19:10:09.972Z,50.68
2022-09-12T19:12:13.379Z,50.81
2022-09-12T19:14:17.652Z,51.50
2022-09-12T19:16:23.325Z,51.75
2022-09-12T19:18:28.326Z,51.57
2022-09-12T19:20:31.926Z,52.27
2022-09-12T19:22:35.350Z,52.39
2022-09-12T19:24:39.708Z,52.49
2022-09-12T19:26:43.136Z,52.48
2022-09-12T19:28:47.029Z,52.43
2022-09-12T19:30:50.494Z,52.86
2022-09-12T19:32:53.884Z,53.16
2022-09-12T19:34:58.608Z,53.29
2022-09-12T19:37:01.937Z,53.70
2022-09-12T19:39:05.702Z,53.51
2022-09-12T19:41:14.675Z,53.75
2022-09-12T19:43:18.624Z,53.56
2022-09-12T19:45:21.983Z,53.01
2022-09-12T19:47:26.137Z,53.04
2022-09-12T19:49:29.416Z,52.88
2022-09-12T19:51:34.304Z,52.33
2022-09-12T19:53:38.272Z,52.56
2022-09-12T19:55:41.625Z,52.25
2022-09-12T19:57:45.065Z,52.41
2022-09-12T19:59:48.707Z,52.08
2022-09-12T20:01:52.806Z,52.80
2022-09-12T20:03:57.161Z,53.55
2022-09-12T20:06:03.610Z,53.82
2022-09-12T20:08:08.469Z,53.86
2022-09-12T20:10:12.028Z,54.29
2022-09-12T20:12:15.756Z,54.24
2022-09-12T20:14:19.244Z,54.21
2022-09-12T20:16:25.573Z,54.05
2022-09-12T20:18:31.161Z,54.25
2022-09-12T20:20:34.489Z,54.33
2022-09-12T20:22:40.132Z,54.66
2022-09-12T20:24:45.057Z,54.73
2022-09-12T20:26:48.473Z,53.96
2022-09-12T20:28:52.089Z,53.93
2022-09-12T20:30:55.423Z,53.80
2022-09-12T20:32:59.915Z,54.68
2022-09-12T20:35:03.385Z,53.91
2022-09-12T20:37:06.867Z,53.95
2022-09-12T20:39:14.403Z,54.59
2022-09-12T20:41:20.936Z,54.62
2022-09-12T20:43:24.290Z,53.69
2022-09-12T20:45:27.615Z,54.31
2022-09-12T20:47:31.379Z,54.08
2022-09-12T20:49:34.648Z,54.39
2022-09-12T20:51:38.490Z,52.91
2022-09-12T20:53:41.823Z,53.29
2022-09-12T20:55:50.951Z,53.04
2022-09-12T20:57:55.595Z,52.97
2022-09-12T20:59:58.934Z,53.75
2022-09-12T21:02:02.426Z,53.37
2022-09-12T21:04:05.960Z,53.88
2022-09-12T21:06:10.720Z,53.17
2022-09-12T21:08:14.467Z,54.22
2022-09-12T21:10:19.196Z,53.72
2022-09-12T21:12:22.842Z,54.65
2022-09-12T21:14:27.530Z,53.61
2022-09-12T21:16:30.906Z,53.54
2022-09-12T21:18:35.777Z,53.71
2022-09-12T21:20:39.097Z,53.89
2022-09-12T21:22:42.573Z,54.00
2022-09-12T21:24:45.884Z,54.10
2022-09-12T21:26:49.353Z,54.01
2022-09-12T21:28:52.648Z,54.86
2022-09-12T21:30:57.669Z,54.88
2022-09-12T21:33:01.227Z,55.24
2022-09-12T21:35:05.734Z,55.33
2022-09-12T21:37:09.133Z,55.34
2022-09-12T21:39:12.390Z,55.76
2022-09-12T21:41:18.337Z,55.54
2022-09-12T21:43:21.734Z,55.64
2022-09-12T21:45:25.144Z,55.94
2022-09-12T21:47:29.959Z,56.07
2022-09-12T21:49:36.131Z,56.74
2022-09-12T21:51:39.500Z,57.05
2022-09-12T21:53:42.970Z,56.26
2022-09-12T21:55:46.289Z,57.01
2022-09-12T21:57:49.716Z,56.95
2022-09-12T21:59:53.049Z,57.34
2022-09-12T22:01:56.360Z,57.22
2022-09-12T22:04:04.515Z,57.58
2022-09-12T22:06:07.995Z,57.75
2022-09-12T22:08:12.283Z,57.20
2022-09-12T22:10:16.214Z,57.72
2022-09-12T22:12:20.310Z,58.24
2022-09-12T22:14:23.654Z,58.56
2022-09-12T22:16:27.056Z,58.95
2022-09-12T22:18:30.359Z,59.04
2022-09-12T22:20:34.954Z,59.10
2022-09-12T22:22:55.984Z,58.70
2022-09-12T22:24:59.256Z,58.75
2022-09-12T22:27:04.762Z,58.95
2022-09-12T22:29:09.985Z,58.67
2022-09-12T22:31:14.296Z,58.61
2022-09-12T22:33:17.780Z,58.45
2022-09-12T22:35:21.378Z,58.07
2022-09-12T22:37:26.448Z,58.10
2022-09-12T22:39:29.856Z,58.13
2022-09-12T22:41:33.168Z,58.29
2022-09-12T22:43:36.989Z,58.45
2022-09-12T22:45:41.900Z,58.30
2022-09-12T22:47:46.305Z,58.00
2022-09-12T22:49:49.752Z,58.25
2022-09-12T22:51:53.129Z,58.19
2022-09-12T22:53:57.737Z,58.15
2022-09-12T22:56:01.181Z,58.03
2022-09-12T22:58:04.603Z,57.59
2022-09-12T23:00:10.439Z,58.26
2022-09-12T23:02:13.799Z,59.14
2022-09-12T23:04:17.071Z,59.02
2022-09-12T23:06:21.029Z,59.20
2022-09-12T23:08:27.315Z,59.62
2022-09-12T23:10:32.403Z,58.80
2022-09-12T23:12:35.697Z,59.06
2022-09-12T23:14:38.990Z,59.65
2022-09-12T23:16:42.212Z,59.58
2022-09-12T23:18:45.936Z,59.55
2022-09-12T23:20:57.590Z,59.35
2022-09-12T23:23:02.204Z,59.80
2022-09-12T23:25:06.477Z,60.37
2022-09-12T23:27:11.235Z,60.71
2022-09-12T23:29:14.585Z,60.42
2022-09-12T23:31:18.298Z,60.28
2022-09-12T23:33:22.103Z,60.52
2022-09-12T23:35:25.378Z,61.00
2022-09-12T23:37:28.629Z,61.49
2022-09-12T23:39:32.302Z,61.45
2022-09-12T23:41:35.567Z,61.36
2022-09-12T23:43:40.395Z,60.99
2022-09-12T23:45:43.739Z,61.08
2022-09-12T23:47:47.120Z,61.32
2022-09-12T23:49:50.438Z,62.36
2022-09-12T23:51:53.794Z,62.17
2022-09-12T23:53:57.098Z,61.97
2022-09-12T23:56:00.517Z,62.19
2022-09-12T23:58:03.820Z,62.09
